This is the latest recevied weather packets stored in our database for station/object VE9LJW. If no packets are shown the sender has not sent any weather packets the latest 10 day(s).
| Time | Temp. | Humidity | Pressure | Rain* | Wind** | Luminosity | Snow |
|---|---|---|---|---|---|---|---|
| 1777346481 | 10.56° C | 72% | 1024 hPa | 0 mm | - | 0 W/m² | - |
| 1777346178 | 10.56° C | 72% | 1024 hPa | 0 mm | - | 0 W/m² | - |
| 1777345875 | 10.56° C | 72% | 1023.9 hPa | 0 mm | - | 0 W/m² | - |
| 1777345573 | 10.56° C | 72% | 1023.9 hPa | 0 mm | - | 0 W/m² | - |
| 1777345269 | 10.56° C | 72% | 1023.8 hPa | 0 mm | - | 0 W/m² | - |
| 1777344966 | 11.11° C | 69% | 1023.8 hPa | 0 mm | - | 0 W/m² | - |
| 1777344662 | 11.67° C | 69% | 1023.7 hPa | 0 mm | - | 0 W/m² | - |
| 1777344358 | 11.67° C | 68% | 1023.7 hPa | 0 mm | - | 0 W/m² | - |
| 1777344056 | 12.22° C | 67% | 1023.8 hPa | 0 mm | - | 0 W/m² | - |
| 1777343753 | 12.78° C | 64% | 1023.6 hPa | 0 mm | - | 0 W/m² | - |
| 1777343450 | 13.33° C | 65% | 1023.6 hPa | 0 mm | - | 0 W/m² | - |
| 1777343148 | 12.78° C | 65% | 1023.5 hPa | 0 mm | - | 0 W/m² | - |
| 1777342845 | 12.22° C | 67% | 1023.6 hPa | 0 mm | - | 0 W/m² | - |
| 1777342542 | 11.11° C | 76% | 1023.8 hPa | 0 mm | - | 0 W/m² | - |
| 1777342239 | 11.11° C | 77% | 1023.7 hPa | 0 mm | - | 0 W/m² | - |
| 1777341935 | 11.67° C | 75% | 1023.7 hPa | 0 mm | - | 0 W/m² | - |
| 1777341632 | 12.22° C | 75% | 1023.7 hPa | 0 mm | - | 0 W/m² | - |
| 1777341327 | 12.22° C | 75% | 1023.5 hPa | 0 mm | - | 0 W/m² | - |
| 1777341025 | 12.22° C | 73% | 1023.8 hPa | 0 mm | - | 0 W/m² | - |
| 1777340722 | 12.78° C | 72% | 1023.7 hPa | 0 mm | - | 0 W/m² | - |
| 1777340421 | 12.78° C | 72% | 1023.7 hPa | 0 mm | - | 0 W/m² | - |
| 1777340117 | 12.78° C | 72% | 1023.6 hPa | 0 mm | - | 0 W/m² | - |
| 1777339814 | 12.78° C | 73% | 1023.3 hPa | 0 mm | - | 0 W/m² | - |
| 1777339512 | 13.33° C | 71% | 1023.4 hPa | 0 mm | - | 0 W/m² | - |
| 1777339209 | 13.89° C | 70% | 1023.5 hPa | 0 mm | - | 0 W/m² | - |
* Rain latest hour (hover to see other rain measurements)
** Current wind speed in m/s (hover to see current wind gust speed)